Time;durP1;ratioP1;P1;durP2;ratioP2;P2;SDS_P1;SDS_P2;PMS_P1;PMS_P2;Temp;Humidity;BMP_temperature;BMP_pressure;BME280_temperature;BME280_humidity;BME280_pressure;Samples;Min_cycle;Max_cycle;Signal;HPM_P1;HPM_P2
2021/12/13 00:02:05;;;;;;;0.40;0.40;;;6.40;99.90;;;;;;5115016;28;20421;-68
2021/12/13 00:05:00;;;;;;;2.30;2.20;;;6.50;99.90;;;;;;5114739;28;20549;-68
2021/12/13 00:07:56;;;;;;;0.40;0.40;;;6.40;99.90;;;;;;5115468;28;20929;-67
2021/12/13 00:10:46;;;;;;;0.40;0.40;;;6.40;99.90;;;;;;5114938;28;20933;-67
2021/12/13 00:13:39;;;;;;;14.90;14.00;;;6.40;99.90;;;;;;5113313;28;20426;-67
2021/12/13 00:16:30;;;;;;;1.57;1.47;;;6.40;99.90;;;;;;5114844;28;20442;-67
2021/12/13 00:19:20;;;;;;;0.70;0.70;;;6.40;99.90;;;;;;5113853;28;20463;-67
2021/12/13 00:22:12;;;;;;;0.63;0.63;;;6.40;99.90;;;;;;5114098;28;20451;-67
2021/12/13 00:25:05;;;;;;;2.53;1.73;;;6.40;99.90;;;;;;5112842;28;20934;-67
2021/12/13 00:27:57;;;;;;;0.40;0.40;;;6.40;99.90;;;;;;5120863;28;20843;-67
2021/12/13 00:31:00;;;;;;;0.40;0.40;;;6.40;99.90;;;;;;5125877;28;20925;-67
2021/12/13 00:34:07;;;;;;;1.17;1.17;;;6.40;99.90;;;;;;5126469;28;20463;-68
2021/12/13 00:36:59;;;;;;;0.40;0.40;;;6.50;99.90;;;;;;5126988;28;20443;-67
2021/12/13 00:39:51;;;;;;;0.40;0.40;;;6.50;99.90;;;;;;5119989;28;20432;-67
2021/12/13 00:42:43;;;;;;;0.40;0.40;;;6.50;99.90;;;;;;5114274;28;20456;-67
2021/12/13 00:45:33;;;;;;;0.40;0.40;;;6.50;99.90;;;;;;5113084;28;20539;-67
2021/12/13 00:48:22;;;;;;;0.40;0.40;;;6.50;99.90;;;;;;5113713;28;20430;-67
2021/12/13 00:51:13;;;;;;;0.50;0.50;;;6.50;99.90;;;;;;5114142;28;20429;-67
2021/12/13 00:54:04;;;;;;;0.40;0.40;;;6.50;99.90;;;;;;5113868;28;20414;-67
2021/12/13 00:57:17;;;;;;;0.40;0.40;;;6.50;99.90;;;;;;5113812;28;20530;-67
2021/12/13 01:00:09;;;;;;;0.40;0.40;;;6.40;99.90;;;;;;5113925;28;20424;-67
2021/12/13 01:02:59;;;;;;;0.40;0.40;;;6.40;99.90;;;;;;5112242;28;20463;-67
2021/12/13 01:06:01;;;;;;;0.40;0.40;;;6.40;99.90;;;;;;5113395;28;20448;-67
2021/12/13 01:09:38;;;;;;;0.40;0.40;;;6.40;99.90;;;;;;5112959;28;20435;-67
2021/12/13 01:12:25;;;;;;;0.40;0.40;;;6.40;99.90;;;;;;5111135;28;20449;-67
2021/12/13 01:15:25;;;;;;;0.40;0.40;;;6.40;99.90;;;;;;5113403;28;20498;-70
2021/12/13 01:18:22;;;;;;;0.40;0.40;;;6.50;99.90;;;;;;5113333;28;20417;-67
2021/12/13 01:21:27;;;;;;;0.57;0.57;;;6.60;99.90;;;;;;5113446;28;20574;-67
2021/12/13 01:24:19;;;;;;;0.40;0.40;;;6.60;99.90;;;;;;5112292;28;20456;-67
2021/12/13 01:27:06;;;;;;;0.40;0.40;;;6.70;99.90;;;;;;5113271;28;20430;-67
2021/12/13 01:29:53;;;;;;;0.40;0.40;;;6.70;99.90;;;;;;5114620;28;20467;-68
2021/12/13 01:32:43;;;;;;;0.40;0.40;;;6.60;99.90;;;;;;5113364;28;20417;-67
2021/12/13 01:35:33;;;;;;;0.40;0.40;;;6.60;99.90;;;;;;5113270;28;20441;-67
2021/12/13 01:38:34;;;;;;;0.40;0.40;;;6.70;99.90;;;;;;5111650;28;20422;-67
2021/12/13 01:41:26;;;;;;;0.40;0.40;;;6.80;99.90;;;;;;5113101;28;20422;-67
2021/12/13 01:44:16;;;;;;;0.40;0.40;;;6.90;99.90;;;;;;5112822;28;20543;-67
2021/12/13 01:47:06;;;;;;;0.40;0.40;;;6.90;99.90;;;;;;5112214;28;20424;-67
2021/12/13 01:50:02;;;;;;;0.40;0.40;;;7.00;99.90;;;;;;5113001;28;20499;-68
2021/12/13 01:52:51;;;;;;;0.40;0.40;;;6.90;99.90;;;;;;5113019;28;20449;-67
2021/12/13 01:55:44;;;;;;;0.40;0.40;;;7.00;99.90;;;;;;5112162;28;20905;-68
2021/12/13 01:58:39;;;;;;;0.40;0.40;;;6.90;99.90;;;;;;5112486;28;20504;-67
2021/12/13 02:01:26;;;;;;;0.40;0.40;;;7.10;99.90;;;;;;5113054;28;20421;-67
2021/12/13 02:04:15;;;;;;;0.40;0.40;;;7.00;99.90;;;;;;5112732;28;20464;-68
2021/12/13 02:07:04;;;;;;;0.40;0.40;;;7.00;99.90;;;;;;5112681;28;20418;-67
2021/12/13 02:09:51;;;;;;;0.40;0.40;;;7.00;99.90;;;;;;5112963;28;20425;-67
2021/12/13 02:12:43;;;;;;;0.40;0.40;;;6.90;99.90;;;;;;5112727;28;20429;-67
2021/12/13 02:18:46;;;;;;;0.40;0.40;;;7.10;99.90;;;;;;5066324;28;20461;-67
2021/12/13 02:21:36;;;;;;;0.40;0.40;;;7.10;99.90;;;;;;5116023;28;20970;-67
2021/12/13 02:24:24;;;;;;;0.40;0.40;;;7.00;99.90;;;;;;5115099;28;20490;-68
2021/12/13 02:27:12;;;;;;;0.40;0.40;;;7.00;99.90;;;;;;5116200;28;20933;-67
2021/12/13 02:30:02;;;;;;;0.40;0.40;;;7.00;99.90;;;;;;5099747;28;20434;-68
2021/12/13 02:32:50;;;;;;;0.40;0.40;;;7.00;99.90;;;;;;5109490;28;20937;-67
2021/12/13 02:35:40;;;;;;;0.40;0.40;;;6.90;99.90;;;;;;5114914;28;20482;-67
2021/12/13 02:38:29;;;;;;;0.40;0.40;;;7.00;99.90;;;;;;5115068;28;21047;-67
2021/12/13 02:41:20;;;;;;;0.40;0.40;;;7.00;99.90;;;;;;5114776;28;20559;-67
2021/12/13 02:44:10;;;;;;;0.40;0.40;;;7.00;99.90;;;;;;5115020;28;20418;-67
2021/12/13 02:47:01;;;;;;;0.40;0.40;;;6.90;99.90;;;;;;5116040;28;20839;-67
2021/12/13 02:49:49;;;;;;;0.40;0.40;;;6.90;99.90;;;;;;5105628;28;20496;-67
2021/12/13 02:52:36;;;;;;;0.40;0.40;;;7.00;99.90;;;;;;5096597;28;20773;-67
2021/12/13 02:55:28;;;;;;;0.40;0.40;;;6.90;99.90;;;;;;5115938;28;20516;-67
2021/12/13 02:58:21;;;;;;;0.40;0.40;;;6.90;99.90;;;;;;5101265;28;20437;-67
2021/12/13 03:01:12;;;;;;;0.40;0.40;;;7.00;99.90;;;;;;5095188;28;20915;-67
2021/12/13 03:04:02;;;;;;;0.40;0.40;;;6.90;99.90;;;;;;5093996;28;20463;-67
2021/12/13 03:06:53;;;;;;;0.40;0.40;;;6.80;99.90;;;;;;5096044;28;20966;-68
2021/12/13 03:09:44;;;;;;;0.40;0.40;;;6.90;99.90;;;;;;5094122;28;21074;-67
2021/12/13 03:12:31;;;;;;;0.40;0.40;;;6.90;99.90;;;;;;5106775;28;20437;-67
2021/12/13 03:15:23;;;;;;;0.40;0.40;;;7.00;99.90;;;;;;5114237;28;20791;-67
2021/12/13 03:18:15;;;;;;;0.40;0.40;;;7.00;99.90;;;;;;5115624;28;20524;-67
2021/12/13 03:21:28;;;;;;;0.40;0.40;;;6.90;99.90;;;;;;5116169;28;20413;-67
2021/12/13 03:24:38;;;;;;;0.40;0.40;;;6.90;99.90;;;;;;5115455;28;20933;-67
2021/12/13 03:27:34;;;;;;;0.40;0.40;;;6.80;99.90;;;;;;5116259;28;20423;-67
2021/12/13 03:30:26;;;;;;;0.40;0.40;;;6.80;99.90;;;;;;5115482;28;20428;-67
2021/12/13 03:33:15;;;;;;;0.40;0.40;;;6.80;99.90;;;;;;5115681;28;20422;-67
2021/12/13 03:36:07;;;;;;;0.40;0.40;;;6.70;99.90;;;;;;5115870;28;20477;-67
2021/12/13 03:38:55;;;;;;;0.40;0.40;;;6.80;99.90;;;;;;5115224;28;20418;-68
2021/12/13 03:41:45;;;;;;;0.40;0.40;;;6.70;99.90;;;;;;5115757;28;20421;-67
2021/12/13 03:44:36;;;;;;;0.40;0.40;;;6.70;99.90;;;;;;5115660;28;20546;-67
2021/12/13 03:47:29;;;;;;;0.40;0.40;;;6.70;99.90;;;;;;5113116;28;20873;-67
2021/12/13 03:50:19;;;;;;;0.40;0.40;;;6.70;99.90;;;;;;5112634;28;20418;-67
2021/12/13 03:53:12;;;;;;;0.40;0.40;;;6.80;99.90;;;;;;5113065;28;20494;-67
2021/12/13 03:56:05;;;;;;;0.40;0.40;;;6.80;99.90;;;;;;5115503;28;20434;-67
2021/12/13 03:58:58;;;;;;;0.40;0.40;;;6.90;99.90;;;;;;5115246;28;20447;-67
2021/12/13 04:01:49;;;;;;;0.40;0.40;;;6.90;99.90;;;;;;5114255;28;20425;-67
2021/12/13 04:04:40;;;;;;;0.40;0.40;;;6.90;99.90;;;;;;5115127;28;20560;-67
2021/12/13 04:07:30;;;;;;;0.40;0.40;;;6.90;99.90;;;;;;5115551;28;20449;-67
2021/12/13 04:10:20;;;;;;;0.40;0.40;;;6.90;99.90;;;;;;5114346;28;20995;-67
2021/12/13 04:13:13;;;;;;;0.40;0.40;;;6.90;99.90;;;;;;5114825;28;20451;-67
2021/12/13 04:16:11;;;;;;;0.40;0.40;;;6.90;99.90;;;;;;5114382;28;20438;-67
2021/12/13 04:19:09;;;;;;;0.40;0.40;;;6.90;99.90;;;;;;5114583;28;20418;-67
2021/12/13 04:21:59;;;;;;;0.40;0.40;;;6.90;99.90;;;;;;5114952;28;20445;-67
2021/12/13 04:24:49;;;;;;;0.40;0.40;;;6.90;99.90;;;;;;5114611;28;20484;-67
2021/12/13 04:27:40;;;;;;;0.40;0.40;;;6.80;99.90;;;;;;5115046;28;20417;-67
2021/12/13 04:30:30;;;;;;;0.40;0.40;;;6.90;99.90;;;;;;5113996;28;20422;-67
2021/12/13 04:33:22;;;;;;;0.40;0.40;;;6.90;99.90;;;;;;5114626;28;20426;-68
2021/12/13 04:36:12;;;;;;;0.40;0.40;;;6.90;99.90;;;;;;5113795;28;20444;-67
2021/12/13 04:39:07;;;;;;;0.40;0.40;;;6.90;99.90;;;;;;5114162;28;20445;-67
2021/12/13 04:41:59;;;;;;;0.40;0.40;;;6.90;99.90;;;;;;5112485;28;20433;-67
2021/12/13 04:44:50;;;;;;;0.40;0.40;;;6.90;99.90;;;;;;5113045;28;20461;-67
2021/12/13 04:47:48;;;;;;;0.40;0.40;;;6.90;99.90;;;;;;5114447;28;20422;-67
2021/12/13 04:50:38;;;;;;;0.40;0.40;;;6.90;99.90;;;;;;5114013;28;20422;-68
2021/12/13 04:53:28;;;;;;;0.40;0.40;;;6.90;99.90;;;;;;5113013;28;20441;-67
2021/12/13 04:56:21;;;;;;;0.40;0.40;;;6.90;99.90;;;;;;5111843;28;20433;-66
2021/12/13 04:59:11;;;;;;;0.40;0.40;;;6.90;99.90;;;;;;5113129;28;20462;-68
2021/12/13 05:02:02;;;;;;;0.40;0.40;;;6.90;99.90;;;;;;5113919;28;20456;-67
2021/12/13 05:04:53;;;;;;;0.40;0.40;;;7.00;99.90;;;;;;5112997;28;20461;-67
2021/12/13 05:07:41;;;;;;;0.40;0.40;;;7.00;99.90;;;;;;5111717;28;20421;-67
2021/12/13 05:10:31;;;;;;;0.40;0.40;;;7.00;99.90;;;;;;5113519;28;20950;-67
2021/12/13 05:13:21;;;;;;;0.40;0.40;;;7.00;99.90;;;;;;5113659;28;20449;-67
2021/12/13 05:16:11;;;;;;;0.40;0.40;;;7.00;99.90;;;;;;5113287;28;20444;-67
2021/12/13 05:18:58;;;;;;;0.40;0.40;;;7.10;99.90;;;;;;5112751;28;20433;-67
2021/12/13 05:21:49;;;;;;;0.40;0.40;;;7.00;99.90;;;;;;5113442;28;20448;-67
2021/12/13 05:24:43;;;;;;;0.40;0.40;;;7.00;99.90;;;;;;5112927;28;20475;-67
2021/12/13 05:27:34;;;;;;;0.40;0.40;;;7.00;99.90;;;;;;5111508;28;20998;-67
2021/12/13 05:30:24;;;;;;;0.40;0.40;;;7.10;99.90;;;;;;5112780;28;20413;-67
2021/12/13 05:33:15;;;;;;;0.40;0.40;;;7.10;99.90;;;;;;5112890;28;20418;-68
2021/12/13 05:36:06;;;;;;;0.40;0.40;;;7.10;99.90;;;;;;5112689;28;20433;-67
2021/12/13 05:39:06;;;;;;;0.40;0.40;;;7.10;99.90;;;;;;5112737;28;20512;-67
2021/12/13 05:41:56;;;;;;;0.40;0.40;;;7.00;99.90;;;;;;5111834;28;20453;-68
2021/12/13 05:44:45;;;;;;;0.40;0.40;;;7.10;99.90;;;;;;5112795;28;20860;-68
2021/12/13 05:47:34;;;;;;;0.40;0.40;;;7.10;99.90;;;;;;5112101;28;20430;-68
2021/12/13 05:50:28;;;;;;;0.40;0.40;;;7.10;99.90;;;;;;5112350;28;20437;-67
2021/12/13 05:53:19;;;;;;;0.40;0.40;;;7.10;99.90;;;;;;5112108;28;20437;-68
2021/12/13 05:56:10;;;;;;;0.40;0.40;;;7.10;99.90;;;;;;5113347;28;20441;-68
2021/12/13 05:59:11;;;;;;;0.40;0.40;;;7.10;99.90;;;;;;5113513;28;20430;-68
2021/12/13 06:02:06;;;;;;;0.40;0.40;;;7.10;99.90;;;;;;5112676;28;20932;-68
2021/12/13 06:05:02;;;;;;;0.40;0.40;;;7.10;99.90;;;;;;5114307;28;20570;-67
2021/12/13 06:07:54;;;;;;;0.50;0.50;;;7.20;99.90;;;;;;5121527;22;20478;-70
2021/12/13 06:10:48;;;;;;;0.40;0.40;;;7.20;99.90;;;;;;5091546;28;20422;-69
2021/12/13 06:13:55;;;;;;;0.40;0.40;;;7.20;99.90;;;;;;5071980;28;20419;-69
2021/12/13 06:16:48;;;;;;;0.40;0.40;;;7.20;99.90;;;;;;5071577;28;20431;-70
2021/12/13 06:19:40;;;;;;;0.40;0.40;;;7.30;99.90;;;;;;5070857;28;20504;-70
2021/12/13 06:22:31;;;;;;;0.40;0.40;;;7.30;99.90;;;;;;5070871;28;20496;-70
2021/12/13 06:25:22;;;;;;;0.40;0.40;;;7.30;99.90;;;;;;5071246;28;20458;-69
2021/12/13 06:28:20;;;;;;;0.40;0.40;;;7.40;99.90;;;;;;5070726;28;20517;-69
2021/12/13 06:31:11;;;;;;;0.40;0.40;;;7.40;99.90;;;;;;5071324;28;20481;-69
2021/12/13 06:34:04;;;;;;;0.50;0.50;;;7.40;99.90;;;;;;5071845;28;20946;-69
2021/12/13 06:36:52;;;;;;;0.40;0.40;;;7.40;99.90;;;;;;5070982;28;20524;-70
2021/12/13 06:39:41;;;;;;;0.40;0.40;;;7.40;99.90;;;;;;5070746;28;20804;-69
2021/12/13 06:42:28;;;;;;;0.40;0.40;;;7.40;99.90;;;;;;5070558;28;20501;-69
2021/12/13 06:45:26;;;;;;;0.40;0.40;;;7.40;99.90;;;;;;5071061;28;20419;-70
2021/12/13 06:48:13;;;;;;;0.53;0.53;;;7.50;99.90;;;;;;5070386;28;20447;-69
2021/12/13 06:51:00;;;;;;;0.40;0.40;;;7.40;99.90;;;;;;5083837;28;20784;-70
2021/12/13 06:54:01;;;;;;;0.40;0.40;;;7.40;99.90;;;;;;5091626;28;20909;-69
2021/12/13 06:56:57;;;;;;;0.40;0.40;;;7.40;99.90;;;;;;5091786;28;20437;-69
2021/12/13 06:59:52;;;;;;;0.40;0.40;;;7.40;99.90;;;;;;5092526;28;20465;-70
2021/12/13 07:02:42;;;;;;;0.50;0.50;;;7.40;99.90;;;;;;5092019;28;20511;-70
2021/12/13 07:05:31;;;;;;;0.50;0.50;;;7.40;99.90;;;;;;5074013;28;20481;-71
2021/12/13 07:08:21;;;;;;;0.40;0.40;;;7.30;99.90;;;;;;5083952;28;20542;-69
2021/12/13 07:11:12;;;;;;;0.50;0.50;;;7.50;99.90;;;;;;5084001;28;20475;-70
2021/12/13 07:14:04;;;;;;;0.40;0.40;;;7.50;99.90;;;;;;5081985;28;20431;-70
2021/12/13 07:16:53;;;;;;;0.40;0.40;;;7.60;99.90;;;;;;5082960;28;20446;-69
2021/12/13 07:19:42;;;;;;;0.40;0.40;;;7.50;99.90;;;;;;5075568;28;20430;-69
2021/12/13 07:22:31;;;;;;;0.40;0.40;;;7.50;99.90;;;;;;5082845;28;20454;-70
2021/12/13 07:25:18;;;;;;;0.43;0.43;;;7.50;99.90;;;;;;5080858;28;20521;-69
2021/12/13 07:28:12;;;;;;;0.40;0.40;;;7.50;99.90;;;;;;5074013;28;20481;-70
2021/12/13 07:31:02;;;;;;;0.40;0.40;;;7.60;99.90;;;;;;5074581;28;20514;-70
2021/12/13 07:33:49;;;;;;;0.50;0.50;;;7.60;99.90;;;;;;5074922;28;20504;-71
2021/12/13 07:36:37;;;;;;;0.50;0.50;;;7.60;99.90;;;;;;5094863;28;20450;-70
2021/12/13 07:39:28;;;;;;;0.40;0.40;;;7.70;99.90;;;;;;5094789;28;20433;-71
2021/12/13 07:42:15;;;;;;;0.40;0.40;;;7.70;99.90;;;;;;5090898;28;20465;-74
2021/12/13 07:45:21;;;;;;;0.40;0.40;;;7.70;99.90;;;;;;5071646;28;20508;-69
2021/12/13 07:48:14;;;;;;;0.40;0.40;;;7.70;99.90;;;;;;5076923;28;20441;-69
2021/12/13 07:51:07;;;;;;;0.43;0.43;;;7.70;99.90;;;;;;5085374;28;20438;-69
2021/12/13 07:54:02;;;;;;;0.50;0.50;;;7.80;99.90;;;;;;5075401;28;20464;-70
2021/12/13 07:56:53;;;;;;;0.40;0.40;;;7.80;99.90;;;;;;5073178;28;20439;-70
2021/12/13 07:59:40;;;;;;;0.50;0.50;;;7.80;99.90;;;;;;5081921;28;20427;-70
2021/12/13 08:02:31;;;;;;;0.40;0.40;;;7.80;99.90;;;;;;5079596;28;20460;-70
2021/12/13 08:05:26;;;;;;;0.40;0.40;;;7.80;99.90;;;;;;5076900;28;20434;-70
2021/12/13 08:08:19;;;;;;;0.50;0.50;;;7.80;99.90;;;;;;5070398;28;21145;-69
2021/12/13 08:11:06;;;;;;;0.40;0.40;;;7.90;99.90;;;;;;5073313;28;20550;-70
2021/12/13 08:13:59;;;;;;;0.50;0.50;;;8.00;99.90;;;;;;5071585;28;20482;-71
2021/12/13 08:16:48;;;;;;;0.50;0.50;;;8.00;99.90;;;;;;5078145;28;20457;-69
2021/12/13 08:19:35;;;;;;;0.40;0.40;;;8.00;99.90;;;;;;5092316;28;20487;-70
2021/12/13 08:22:28;;;;;;;0.40;0.40;;;8.00;99.90;;;;;;5072326;28;20461;-71
2021/12/13 08:25:18;;;;;;;0.40;0.40;;;8.00;99.90;;;;;;5074295;28;20435;-69
2021/12/13 08:28:09;;;;;;;0.43;0.43;;;8.00;99.90;;;;;;5088106;28;20511;-70
2021/12/13 08:30:59;;;;;;;0.50;0.50;;;8.10;99.90;;;;;;5078207;28;20442;-69
2021/12/13 08:33:50;;;;;;;0.40;0.40;;;8.10;99.90;;;;;;5079410;28;20534;-69
2021/12/13 08:36:40;;;;;;;0.50;0.50;;;8.10;99.90;;;;;;5070032;28;20515;-70
2021/12/13 08:39:33;;;;;;;0.40;0.40;;;8.10;99.90;;;;;;5091794;28;20519;-70
2021/12/13 08:42:22;;;;;;;0.40;0.40;;;8.20;99.90;;;;;;5088834;28;20512;-70
2021/12/13 08:45:19;;;;;;;0.40;0.40;;;8.20;99.90;;;;;;5079892;28;20439;-70
2021/12/13 08:48:12;;;;;;;0.50;0.50;;;8.30;99.90;;;;;;5092013;28;20457;-69
2021/12/13 08:51:02;;;;;;;0.40;0.40;;;8.30;99.90;;;;;;5092094;28;20434;-70
2021/12/13 08:54:01;;;;;;;0.50;0.50;;;8.40;99.90;;;;;;5091451;28;20446;-67
2021/12/13 08:56:52;;;;;;;1.90;1.90;;;8.50;99.90;;;;;;5091438;28;20531;-70
2021/12/13 08:59:49;;;;;;;0.40;0.40;;;8.50;99.90;;;;;;5091946;28;20545;-69
2021/12/13 09:02:40;;;;;;;0.50;0.50;;;8.60;99.90;;;;;;5090084;28;20476;-70
2021/12/13 09:05:30;;;;;;;0.40;0.40;;;8.60;99.90;;;;;;5091720;28;20441;-70
2021/12/13 09:08:19;;;;;;;0.50;0.50;;;8.70;99.90;;;;;;5091246;28;20543;-69
2021/12/13 09:11:24;;;;;;;0.40;0.40;;;8.70;99.90;;;;;;5091552;28;20453;-70
2021/12/13 09:14:18;;;;;;;0.50;0.50;;;8.80;99.90;;;;;;5091383;28;20426;-70
2021/12/13 09:17:16;;;;;;;0.40;0.40;;;8.90;99.90;;;;;;5088897;28;20810;-70
2021/12/13 09:20:11;;;;;;;0.40;0.40;;;8.80;99.90;;;;;;5087862;28;20445;-72
2021/12/13 09:23:08;;;;;;;0.50;0.50;;;8.80;99.90;;;;;;5091162;28;20458;-70
2021/12/13 09:26:03;;;;;;;0.40;0.40;;;8.90;99.90;;;;;;5079735;28;20516;-70
2021/12/13 09:28:54;;;;;;;0.50;0.50;;;8.90;99.90;;;;;;5077792;28;20513;-68
2021/12/13 09:31:42;;;;;;;0.40;0.40;;;8.80;99.90;;;;;;5090872;28;20518;-69
2021/12/13 09:34:29;;;;;;;0.40;0.40;;;8.80;99.90;;;;;;5091272;28;20461;-69
2021/12/13 09:37:16;;;;;;;0.50;0.50;;;8.90;99.90;;;;;;5085919;28;20458;-70
2021/12/13 09:40:05;;;;;;;0.40;0.40;;;9.00;99.90;;;;;;5087393;28;20434;-69
2021/12/13 09:42:56;;;;;;;0.40;0.40;;;9.00;99.90;;;;;;5084427;28;20426;-70
2021/12/13 09:45:47;;;;;;;0.40;0.40;;;9.10;99.90;;;;;;5090181;28;20438;-70
2021/12/13 09:48:40;;;;;;;0.40;0.40;;;9.20;99.90;;;;;;5072802;28;20427;-73
2021/12/13 09:51:30;;;;;;;0.40;0.40;;;9.20;99.90;;;;;;5090464;28;20427;-70
2021/12/13 09:54:21;;;;;;;0.47;0.47;;;9.30;99.90;;;;;;5090034;28;20964;-69
2021/12/13 09:57:11;;;;;;;0.50;0.50;;;9.40;99.90;;;;;;5090463;28;20929;-69
2021/12/13 09:59:59;;;;;;;0.40;0.40;;;9.50;99.90;;;;;;5090477;28;20996;-70
2021/12/13 10:02:51;;;;;;;0.40;0.40;;;9.50;99.90;;;;;;5074816;28;20795;-69
2021/12/13 10:05:44;;;;;;;0.50;0.50;;;9.60;99.90;;;;;;5090236;28;20434;-69
2021/12/13 10:08:41;;;;;;;0.50;0.50;;;9.60;99.90;;;;;;5089553;28;20465;-70
2021/12/13 10:11:33;;;;;;;0.40;0.40;;;9.60;99.90;;;;;;5090721;28;20431;-69
2021/12/13 10:14:25;;;;;;;0.40;0.40;;;9.60;99.90;;;;;;5087378;28;20859;-70
2021/12/13 10:17:14;;;;;;;0.40;0.40;;;9.60;99.90;;;;;;5079916;28;20442;-68
2021/12/13 10:20:06;;;;;;;0.40;0.40;;;9.60;99.90;;;;;;5085696;28;20930;-70
2021/12/13 10:22:55;;;;;;;0.60;0.60;;;9.60;99.90;;;;;;5072397;28;20466;-72
2021/12/13 10:25:45;;;;;;;0.50;0.50;;;9.70;99.90;;;;;;5088239;28;20440;-69
2021/12/13 10:28:36;;;;;;;0.50;0.50;;;9.70;99.90;;;;;;5089575;28;20457;-69
2021/12/13 10:31:40;;;;;;;0.50;0.50;;;9.80;99.90;;;;;;5079684;28;20934;-69
2021/12/13 10:34:37;;;;;;;0.50;0.50;;;9.80;99.90;;;;;;5065491;28;20454;-69
2021/12/13 10:37:36;;;;;;;0.50;0.50;;;9.90;99.90;;;;;;5085562;28;20453;-69
2021/12/13 10:40:28;;;;;;;0.40;0.40;;;10.00;99.90;;;;;;5093047;28;20789;-70
2021/12/13 10:43:21;;;;;;;0.40;0.40;;;9.90;99.90;;;;;;5091729;28;20422;-70
2021/12/13 10:46:12;;;;;;;0.70;0.70;;;10.00;99.90;;;;;;5086766;28;20930;-69
2021/12/13 10:49:05;;;;;;;0.40;0.40;;;10.10;99.90;;;;;;5033014;28;20429;-69
2021/12/13 10:52:05;;;;;;;0.40;0.40;;;10.10;99.90;;;;;;5033594;28;20461;-69
2021/12/13 10:54:55;;;;;;;0.50;0.50;;;10.10;99.90;;;;;;5033089;28;20448;-68
2021/12/13 10:57:48;;;;;;;0.50;0.50;;;10.10;99.90;;;;;;5031573;28;20801;-69
2021/12/13 11:00:38;;;;;;;0.40;0.40;;;10.30;99.90;;;;;;5034670;28;20960;-69
2021/12/13 11:03:28;;;;;;;1.43;1.33;;;10.40;99.90;;;;;;5026958;28;20482;-70
2021/12/13 11:06:16;;;;;;;0.50;0.50;;;10.60;99.90;;;;;;5025309;28;20433;-69
2021/12/13 11:09:05;;;;;;;0.50;0.50;;;10.60;99.90;;;;;;5033019;28;20437;-71
2021/12/13 11:11:56;;;;;;;0.40;0.40;;;10.60;99.90;;;;;;5033909;28;20840;-70
2021/12/13 11:14:48;;;;;;;0.40;0.40;;;10.60;99.90;;;;;;5035367;28;20455;-69
2021/12/13 11:17:36;;;;;;;0.50;0.50;;;10.50;99.90;;;;;;5032848;28;20503;-69
2021/12/13 11:20:27;;;;;;;0.40;0.40;;;10.50;99.90;;;;;;5026601;28;20845;-69
2021/12/13 11:23:18;;;;;;;0.50;0.50;;;10.60;99.90;;;;;;5032496;28;20461;-71
2021/12/13 11:26:07;;;;;;;0.50;0.50;;;10.60;99.90;;;;;;5034873;28;21269;-69
2021/12/13 11:28:55;;;;;;;0.50;0.50;;;10.70;99.90;;;;;;5032276;28;20433;-70
2021/12/13 11:32:13;;;;;;;0.40;0.40;;;10.70;99.90;;;;;;5027661;28;20433;-70
2021/12/13 11:35:37;;;;;;;0.40;0.40;;;10.70;99.90;;;;;;5033185;28;20479;-68
2021/12/13 11:39:07;;;;;;;0.50;0.50;;;10.70;99.90;;;;;;5009960;28;20469;-69
2021/12/13 11:42:10;;;;;;;0.43;0.43;;;10.70;99.90;;;;;;4992011;28;20431;-69
2021/12/13 11:45:20;;;;;;;0.40;0.40;;;10.90;99.90;;;;;;4992139;28;20947;-68
2021/12/13 11:48:41;;;;;;;0.40;0.40;;;10.80;99.90;;;;;;5032566;28;20471;-69
2021/12/13 11:52:06;;;;;;;0.47;0.47;;;10.80;99.90;;;;;;5018235;28;20429;-69
2021/12/13 11:55:25;;;;;;;0.40;0.40;;;10.70;99.90;;;;;;5032920;28;20445;-70
2021/12/13 11:58:39;;;;;;;0.40;0.40;;;10.60;99.90;;;;;;5022194;28;20575;-69
2021/12/13 12:01:52;;;;;;;0.47;0.47;;;10.60;99.90;;;;;;5032126;28;20425;-69
2021/12/13 12:05:25;;;;;;;0.40;0.40;;;10.50;99.90;;;;;;5033978;28;20956;-71
2021/12/13 12:08:36;;;;;;;0.50;0.50;;;10.40;99.90;;;;;;5012265;28;20925;-69
2021/12/13 12:11:57;;;;;;;0.40;0.40;;;10.40;99.90;;;;;;5030123;28;20479;-69
2021/12/13 12:14:44;;;;;;;0.40;0.40;;;10.40;99.90;;;;;;5009205;28;20452;-69
2021/12/13 12:17:33;;;;;;;0.50;0.50;;;10.30;99.90;;;;;;5026552;28;20452;-70
2021/12/13 12:20:26;;;;;;;0.40;0.40;;;10.30;99.90;;;;;;5026853;28;20445;-71
2021/12/13 12:23:28;;;;;;;0.40;0.40;;;10.20;99.90;;;;;;5029834;28;20445;-70
2021/12/13 12:26:16;;;;;;;0.43;0.43;;;10.20;99.90;;;;;;5020228;28;20472;-69
2021/12/13 12:29:09;;;;;;;2.93;2.83;;;10.30;99.90;;;;;;5033491;28;20440;-70
2021/12/13 12:32:01;;;;;;;0.40;0.40;;;10.30;99.90;;;;;;5030375;28;20421;-70
2021/12/13 12:34:54;;;;;;;0.50;0.50;;;10.30;99.90;;;;;;5031951;28;20951;-70
2021/12/13 12:38:18;;;;;;;0.40;0.40;;;10.40;99.90;;;;;;5033415;28;20978;-70
2021/12/13 12:41:49;;;;;;;0.40;0.40;;;10.40;99.90;;;;;;5033437;28;20457;-70
2021/12/13 12:44:52;;;;;;;0.40;0.40;;;10.50;99.90;;;;;;5026966;28;20432;-70
2021/12/13 12:48:03;;;;;;;0.40;0.40;;;10.60;99.90;;;;;;5033503;28;20480;-69
2021/12/13 12:51:08;;;;;;;0.40;0.40;;;10.60;99.90;;;;;;5022425;28;20457;-69
2021/12/13 12:54:00;;;;;;;0.40;0.40;;;10.50;99.90;;;;;;5016659;28;20433;-69
2021/12/13 12:56:52;;;;;;;0.50;0.50;;;10.60;99.90;;;;;;5032802;28;20964;-69
2021/12/13 12:59:43;;;;;;;0.50;0.50;;;10.50;99.90;;;;;;5027037;28;20788;-69
2021/12/13 13:02:33;;;;;;;0.40;0.40;;;10.50;99.90;;;;;;5025371;28;20833;-70
2021/12/13 13:05:23;;;;;;;0.40;0.40;;;10.50;99.90;;;;;;5025736;28;20441;-69
2021/12/13 13:08:11;;;;;;;0.50;0.50;;;10.60;99.90;;;;;;5026110;28;20472;-70
2021/12/13 13:14:10;;;;;;;0.40;0.40;;;10.60;99.90;;;;;;5016961;28;20847;-69
2021/12/13 13:17:02;;;;;;;0.40;0.40;;;10.60;99.90;;;;;;5032581;28;20813;-69
2021/12/13 13:19:50;;;;;;;0.40;0.40;;;10.60;99.90;;;;;;5032310;28;20436;-68
2021/12/13 13:22:40;;;;;;;0.50;0.50;;;10.60;99.90;;;;;;5032617;28;20432;-69
2021/12/13 13:25:29;;;;;;;0.40;0.40;;;10.70;99.90;;;;;;5028383;28;20468;-69
2021/12/13 13:28:21;;;;;;;0.40;0.40;;;10.70;99.90;;;;;;5017722;28;20484;-69
2021/12/13 13:31:13;;;;;;;0.40;0.40;;;10.70;99.90;;;;;;5033521;28;20814;-69
2021/12/13 13:34:05;;;;;;;0.40;0.40;;;10.70;99.90;;;;;;5028454;28;20554;-69
2021/12/13 13:36:56;;;;;;;0.40;0.40;;;10.80;99.90;;;;;;5033179;28;20460;-69
2021/12/13 13:39:46;;;;;;;0.40;0.40;;;10.70;99.90;;;;;;5030072;28;20563;-71
2021/12/13 13:42:38;;;;;;;0.40;0.40;;;10.70;99.90;;;;;;5019563;28;20486;-69
2021/12/13 13:45:29;;;;;;;0.50;0.50;;;10.70;99.90;;;;;;5032562;28;20456;-67
2021/12/13 13:48:21;;;;;;;0.40;0.40;;;10.70;99.90;;;;;;5032738;28;20472;-67
2021/12/13 13:51:14;;;;;;;0.60;0.60;;;10.60;99.90;;;;;;5030720;28;20483;-68
2021/12/13 13:54:01;;;;;;;0.50;0.50;;;10.60;99.90;;;;;;5020947;28;20496;-68
2021/12/13 13:56:48;;;;;;;0.40;0.40;;;10.60;99.90;;;;;;5025235;28;20454;-70
2021/12/13 13:59:41;;;;;;;0.40;0.40;;;10.50;99.90;;;;;;5025461;28;20448;-68
2021/12/13 14:02:35;;;;;;;2.63;2.53;;;10.60;99.90;;;;;;5029910;28;20880;-69
2021/12/13 14:05:21;;;;;;;0.83;0.83;;;10.40;99.90;;;;;;5030636;28;20941;-67
2021/12/13 14:08:18;;;;;;;1.37;1.37;;;10.30;99.90;;;;;;5031959;28;20534;-68
2021/12/13 14:11:12;;;;;;;0.80;0.80;;;10.30;99.90;;;;;;5036056;28;20436;-68
2021/12/13 14:14:01;;;;;;;1.03;0.77;;;10.30;99.90;;;;;;5031198;28;20440;-69
2021/12/13 14:16:51;;;;;;;1.83;1.10;;;10.40;99.90;;;;;;5035689;28;20881;-68
2021/12/13 14:19:41;;;;;;;0.60;0.60;;;10.30;99.90;;;;;;5023296;28;20455;-69
2021/12/13 14:22:30;;;;;;;0.40;0.40;;;10.30;99.90;;;;;;5026591;28;20567;-69
2021/12/13 14:25:32;;;;;;;1.53;1.47;;;10.20;99.90;;;;;;5033520;28;20904;-68
2021/12/13 14:28:27;;;;;;;0.40;0.40;;;10.20;99.90;;;;;;5035217;28;21000;-69
2021/12/13 14:31:18;;;;;;;1.53;1.07;;;10.20;99.90;;;;;;5033796;28;20464;-68
2021/12/13 14:34:07;;;;;;;1.03;0.83;;;10.20;99.90;;;;;;5035730;28;20432;-71
2021/12/13 14:36:57;;;;;;;0.43;0.43;;;10.20;99.90;;;;;;5020903;28;20496;-69
2021/12/13 14:39:48;;;;;;;0.50;0.50;;;10.40;99.90;;;;;;5030162;28;20523;-69
2021/12/13 14:42:38;;;;;;;1.00;1.00;;;10.40;99.90;;;;;;5035539;28;20425;-69
2021/12/13 14:45:25;;;;;;;0.40;0.40;;;10.30;99.90;;;;;;5035166;28;20425;-70
2021/12/13 14:48:16;;;;;;;0.40;0.40;;;10.30;99.90;;;;;;5035183;28;21322;-69
2021/12/13 14:51:12;;;;;;;3.63;1.63;;;10.30;99.90;;;;;;5033469;28;20424;-69
2021/12/13 14:54:00;;;;;;;2.00;0.80;;;10.30;99.90;;;;;;5033490;28;20440;-69
2021/12/13 14:56:50;;;;;;;1.00;0.60;;;10.30;99.90;;;;;;5014969;28;20434;-68
2021/12/13 14:59:56;;;;;;;0.70;0.70;;;10.20;99.90;;;;;;5024270;28;20433;-71
2021/12/13 15:02:53;;;;;;;0.40;0.40;;;10.10;99.90;;;;;;5033486;28;20515;-69
2021/12/13 15:05:47;;;;;;;0.50;0.50;;;10.10;99.90;;;;;;5026860;28;20812;-69
2021/12/13 15:08:39;;;;;;;2.83;0.80;;;10.00;99.90;;;;;;5024654;28;20485;-73
2021/12/13 15:11:29;;;;;;;0.40;0.40;;;10.00;99.90;;;;;;5034780;28;20968;-68
2021/12/13 15:14:22;;;;;;;0.40;0.40;;;10.00;99.90;;;;;;5035085;28;20440;-68
2021/12/13 15:17:19;;;;;;;0.50;0.50;;;10.00;99.90;;;;;;5035591;28;20938;-70